createdAt,value
2018-06-24T00:00:01.911Z,5.60
2018-06-24T00:02:30.144Z,5.78
2018-06-24T00:04:58.415Z,4.80
2018-06-24T00:07:38.768Z,5.60
2018-06-24T00:10:08.720Z,4.90
2018-06-24T00:12:49.590Z,5.58
2018-06-24T00:15:30.436Z,6.00
2018-06-24T00:18:03.853Z,5.05
2018-06-24T00:20:32.101Z,4.47
2018-06-24T00:23:12.820Z,5.40
2018-06-24T00:25:41.074Z,4.93
2018-06-24T00:28:11.050Z,4.17
2018-06-24T00:30:39.546Z,4.67
2018-06-24T00:33:20.483Z,5.05
2018-06-24T00:36:01.313Z,4.53
2018-06-24T00:38:29.586Z,4.83
2018-06-24T00:41:10.276Z,4.20
2018-06-24T00:43:39.618Z,4.15
2018-06-24T00:46:07.639Z,4.95
2018-06-24T00:48:47.868Z,5.10
2018-06-24T00:51:16.100Z,5.00
2018-06-24T00:53:56.511Z,4.50
2018-06-24T00:56:24.788Z,5.75
2018-06-24T00:59:05.445Z,4.80
2018-06-24T01:01:46.254Z,4.90
2018-06-24T01:04:26.409Z,5.20
2018-06-24T01:06:54.682Z,5.00
2018-06-24T01:09:22.958Z,4.50
2018-06-24T01:11:51.214Z,5.08
2018-06-24T01:14:19.444Z,5.10
2018-06-24T01:16:59.874Z,4.75
2018-06-24T01:19:28.123Z,5.70
2018-06-24T01:21:56.351Z,5.35
2018-06-24T01:24:24.596Z,5.10
2018-06-24T01:26:52.777Z,4.90
2018-06-24T01:29:33.553Z,5.28
2018-06-24T01:32:14.268Z,4.33
2018-06-24T01:34:55.120Z,4.65
2018-06-24T01:37:35.912Z,4.53
2018-06-24T01:40:16.833Z,4.50
2018-06-24T01:42:57.662Z,4.72
2018-06-24T01:45:25.875Z,3.83
2018-06-24T01:48:06.065Z,5.95
2018-06-24T01:50:46.893Z,5.47
2018-06-24T01:53:15.102Z,5.27
2018-06-24T01:55:55.626Z,5.05
2018-06-24T01:58:36.394Z,5.85
2018-06-24T02:01:17.136Z,4.65
2018-06-24T02:03:57.898Z,5.20
2018-06-24T02:06:38.784Z,4.42
2018-06-24T02:09:19.632Z,4.95
2018-06-24T02:11:48.558Z,4.95
2018-06-24T02:14:17.152Z,5.50
2018-06-24T02:16:46.350Z,6.10
2018-06-24T02:19:27.006Z,5.92
2018-06-24T02:21:55.299Z,5.40
2018-06-24T02:24:23.491Z,4.15
2018-06-24T02:27:03.871Z,4.83
2018-06-24T02:29:44.628Z,5.37
2018-06-24T02:32:25.613Z,4.70
2018-06-24T02:34:53.898Z,5.30
2018-06-24T02:37:22.120Z,5.67
2018-06-24T02:39:50.563Z,5.50
2018-06-24T02:42:18.797Z,5.15
2018-06-24T02:45:00.037Z,4.97
2018-06-24T02:47:28.259Z,5.08
2018-06-24T02:50:03.349Z,5.42
2018-06-24T02:52:31.796Z,5.70
2018-06-24T02:55:04.253Z,7.37
2018-06-24T02:57:38.130Z,7.12
2018-06-24T03:00:06.455Z,7.37
2018-06-24T03:02:34.707Z,8.67
2018-06-24T03:05:04.314Z,8.70
2018-06-24T03:07:44.564Z,8.65
2018-06-24T03:10:18.284Z,7.30
2018-06-24T03:12:46.478Z,7.60
2018-06-24T03:15:27.044Z,7.85
2018-06-24T03:17:55.365Z,8.40
2018-06-24T03:20:35.921Z,7.62
2018-06-24T03:23:04.546Z,7.58
2018-06-24T03:25:32.811Z,8.45
2018-06-24T03:28:01.516Z,8.83
2018-06-24T03:30:33.006Z,8.98
2018-06-24T03:33:01.506Z,10.00
2018-06-24T03:35:29.922Z,9.18
2018-06-24T03:38:10.682Z,8.73
2018-06-24T03:40:51.696Z,9.60
2018-06-24T03:43:21.761Z,7.95
2018-06-24T03:45:49.961Z,8.48
2018-06-24T03:48:18.201Z,8.70
2018-06-24T03:50:52.332Z,9.25
2018-06-24T03:53:20.572Z,8.83
2018-06-24T03:55:48.800Z,8.40
2018-06-24T03:58:18.706Z,9.30
2018-06-24T04:00:59.416Z,10.23
2018-06-24T04:03:27.628Z,11.38
2018-06-24T04:05:57.165Z,8.90
2018-06-24T04:08:29.126Z,10.58
2018-06-24T04:11:10.039Z,10.38
2018-06-24T04:13:38.372Z,10.80
2018-06-24T04:16:07.390Z,8.33
2018-06-24T04:18:43.943Z,8.37
2018-06-24T04:21:21.968Z,7.95
2018-06-24T04:23:51.519Z,7.53
2018-06-24T04:26:21.492Z,7.53
2018-06-24T04:28:49.725Z,8.45
2018-06-24T04:31:18.554Z,6.90
2018-06-24T04:33:46.738Z,8.10
2018-06-24T04:36:14.938Z,8.63
2018-06-24T04:38:55.551Z,8.23
2018-06-24T04:41:24.406Z,8.60
2018-06-24T04:44:05.252Z,7.87
2018-06-24T04:46:33.515Z,8.48
2018-06-24T04:49:01.902Z,9.20
2018-06-24T04:51:42.936Z,9.65
2018-06-24T04:54:12.571Z,9.23
2018-06-24T04:56:42.061Z,10.30
2018-06-24T04:59:10.440Z,9.23
2018-06-24T05:01:38.743Z,9.73
2018-06-24T05:04:07.182Z,10.30
2018-06-24T05:06:35.414Z,7.80
2018-06-24T05:09:05.470Z,8.75
2018-06-24T05:11:46.175Z,9.03
2018-06-24T05:14:14.413Z,10.45
2018-06-24T05:16:54.724Z,10.00
2018-06-24T05:19:22.947Z,10.50
2018-06-24T05:21:51.229Z,10.50
2018-06-24T05:24:19.614Z,10.23
2018-06-24T05:26:47.909Z,11.73
2018-06-24T05:29:28.933Z,11.63
2018-06-24T05:32:09.605Z,11.40
2018-06-24T05:34:50.376Z,12.18
2018-06-24T05:37:31.144Z,11.95
2018-06-24T05:40:00.050Z,11.60
2018-06-24T05:42:41.045Z,10.15
2018-06-24T05:45:21.898Z,10.45
2018-06-24T05:47:50.177Z,10.40
2018-06-24T05:50:18.500Z,10.30
2018-06-24T05:52:47.154Z,10.72
2018-06-24T05:55:27.970Z,9.70
2018-06-24T05:57:56.277Z,9.43
2018-06-24T06:00:36.595Z,11.10
2018-06-24T06:03:12.658Z,9.40
2018-06-24T06:05:53.649Z,8.90
2018-06-24T06:08:21.822Z,9.35
2018-06-24T06:10:50.177Z,9.45
2018-06-24T06:13:18.512Z,8.90
2018-06-24T06:15:59.359Z,9.80
2018-06-24T06:18:40.211Z,8.98
2018-06-24T06:21:08.463Z,9.05
2018-06-24T06:23:48.804Z,9.10
2018-06-24T06:26:29.476Z,9.70
2018-06-24T06:29:10.336Z,8.50
2018-06-24T06:31:51.112Z,9.40
2018-06-24T06:34:31.912Z,9.88
2018-06-24T06:37:12.814Z,10.03
2018-06-24T06:39:41.106Z,9.30
2018-06-24T06:42:21.537Z,8.08
2018-06-24T06:45:02.552Z,10.33
2018-06-24T06:47:43.425Z,9.10
2018-06-24T06:50:24.155Z,9.05
2018-06-24T06:53:05.044Z,7.80
2018-06-24T06:55:45.850Z,6.42
2018-06-24T06:58:14.098Z,7.15
2018-06-24T07:00:54.483Z,7.20
2018-06-24T07:03:22.781Z,6.70
2018-06-24T07:06:03.432Z,8.90
2018-06-24T07:08:44.347Z,8.70
2018-06-24T07:11:16.373Z,7.40
2018-06-24T07:13:44.643Z,6.60
2018-06-24T07:16:25.140Z,6.43
2018-06-24T07:18:54.540Z,7.37
2018-06-24T07:21:35.040Z,7.50
2018-06-24T07:24:15.605Z,7.87
2018-06-24T07:26:56.617Z,8.70
2018-06-24T07:29:37.433Z,6.97
2018-06-24T07:32:18.228Z,7.20
2018-06-24T07:34:59.096Z,6.35
2018-06-24T07:37:39.843Z,6.40
2018-06-24T07:40:08.138Z,8.20
2018-06-24T07:42:48.438Z,6.47
2018-06-24T07:45:16.737Z,7.17
2018-06-24T07:47:57.033Z,7.35
2018-06-24T07:50:25.912Z,7.55
2018-06-24T07:52:54.126Z,7.50
2018-06-24T07:55:34.553Z,7.13
2018-06-24T07:58:15.215Z,5.67
2018-06-24T08:00:43.465Z,6.27
2018-06-24T08:03:23.844Z,7.20
2018-06-24T08:06:04.614Z,6.90
2018-06-24T08:08:32.993Z,5.60
2018-06-24T08:11:13.449Z,6.28
2018-06-24T08:13:54.242Z,6.20
2018-06-24T08:16:35.055Z,6.20
2018-06-24T08:19:16.112Z,6.40
2018-06-24T08:21:57.167Z,7.00
2018-06-24T08:24:38.940Z,7.67
2018-06-24T08:27:19.997Z,7.87
2018-06-24T08:30:00.925Z,9.18
2018-06-24T08:32:41.709Z,5.80
2018-06-24T08:35:22.515Z,6.05
2018-06-24T08:38:03.525Z,9.40
2018-06-24T08:40:31.927Z,8.47
2018-06-24T08:43:12.204Z,6.00
2018-06-24T08:45:40.472Z,6.60
2018-06-24T08:48:21.100Z,7.40
2018-06-24T08:50:49.439Z,7.90
2018-06-24T08:53:29.871Z,6.03
2018-06-24T08:56:10.544Z,6.95
2018-06-24T08:58:39.017Z,6.55
2018-06-24T09:01:07.227Z,6.20
2018-06-24T09:03:48.287Z,6.55
2018-06-24T09:06:29.212Z,6.22
2018-06-24T09:08:57.439Z,5.05
2018-06-24T09:11:37.814Z,5.25
2018-06-24T09:14:18.624Z,4.40
2018-06-24T09:16:59.456Z,5.70
2018-06-24T09:19:40.371Z,7.22
2018-06-24T09:22:08.663Z,6.37
2018-06-24T09:24:36.948Z,6.08
2018-06-24T09:27:17.447Z,5.78
2018-06-24T09:29:58.368Z,6.10
2018-06-24T09:32:26.704Z,4.50
2018-06-24T09:34:55.009Z,3.80
2018-06-24T09:37:35.234Z,5.08
2018-06-24T09:40:15.996Z,5.08
2018-06-24T09:42:57.036Z,6.75
2018-06-24T09:45:38.213Z,7.55
2018-06-24T09:48:19.307Z,6.58
2018-06-24T09:51:00.323Z,6.70
2018-06-24T09:53:41.258Z,7.70
2018-06-24T09:56:22.327Z,5.25
2018-06-24T09:59:03.040Z,5.65
2018-06-24T10:01:44.088Z,5.58
2018-06-24T10:04:24.953Z,5.15
2018-06-24T10:07:05.646Z,4.60
2018-06-24T10:09:46.735Z,5.12
2018-06-24T10:12:15.441Z,4.65
2018-06-24T10:14:53.964Z,5.30
2018-06-24T10:17:34.266Z,6.42
2018-06-24T10:20:15.118Z,6.33
2018-06-24T10:22:45.514Z,5.30
2018-06-24T10:25:13.894Z,6.15
2018-06-24T10:27:54.728Z,5.53
2018-06-24T10:30:24.170Z,4.70
2018-06-24T10:33:04.475Z,5.10
2018-06-24T10:35:34.345Z,4.80
2018-06-24T10:38:02.625Z,5.60
2018-06-24T10:40:30.974Z,5.33
2018-06-24T10:42:59.388Z,5.05
2018-06-24T10:45:27.657Z,4.55
2018-06-24T10:48:08.972Z,4.80
2018-06-24T10:50:42.977Z,5.33
2018-06-24T10:53:12.855Z,5.58
2018-06-24T10:55:41.267Z,4.35
2018-06-24T10:58:09.626Z,4.45
2018-06-24T11:00:41.529Z,4.37
2018-06-24T11:03:15.899Z,4.15
2018-06-24T11:05:44.284Z,3.00
2018-06-24T11:08:13.237Z,2.83
2018-06-24T11:10:47.726Z,3.05
2018-06-24T11:13:16.337Z,3.15
2018-06-24T11:15:50.979Z,3.30
2018-06-24T11:18:31.226Z,3.87
2018-06-24T11:20:59.479Z,3.60
2018-06-24T11:23:27.794Z,3.35
2018-06-24T11:26:08.746Z,4.40
2018-06-24T11:28:37.073Z,3.20
2018-06-24T11:31:17.452Z,3.15
2018-06-24T11:33:45.753Z,2.55
2018-06-24T11:36:25.931Z,3.00
2018-06-24T11:39:06.709Z,3.00
2018-06-24T11:41:34.975Z,2.10
2018-06-24T11:44:03.552Z,1.90
2018-06-24T11:46:44.629Z,1.80
2018-06-24T11:49:13.060Z,2.00
2018-06-24T11:51:41.372Z,2.20
2018-06-24T11:54:12.400Z,1.95
2018-06-24T11:56:52.973Z,2.10
2018-06-24T11:59:21.252Z,2.10
2018-06-24T12:01:55.426Z,2.30
2018-06-24T12:04:25.407Z,2.70
2018-06-24T12:06:53.729Z,2.20
2018-06-24T12:09:24.102Z,2.00
2018-06-24T12:12:04.526Z,2.30
2018-06-24T12:14:32.743Z,1.90
2018-06-24T12:17:01.114Z,2.20
2018-06-24T12:19:41.931Z,2.15
2018-06-24T12:22:10.214Z,3.00
2018-06-24T12:24:38.510Z,2.60
2018-06-24T12:27:06.770Z,3.50
2018-06-24T12:29:47.429Z,3.37
2018-06-24T12:32:15.669Z,3.10
2018-06-24T12:34:55.993Z,2.25
2018-06-24T12:37:36.557Z,3.10
2018-06-24T12:40:21.445Z,2.60
2018-06-24T12:43:03.923Z,3.03
2018-06-24T12:45:45.049Z,3.02
2018-06-24T12:48:13.423Z,3.10
2018-06-24T12:50:54.385Z,3.22
2018-06-24T12:53:22.853Z,3.55
2018-06-24T12:56:03.219Z,3.00
2018-06-24T12:58:31.561Z,3.60
2018-06-24T13:01:12.103Z,3.50
2018-06-24T13:03:53.160Z,3.58
2018-06-24T13:06:33.932Z,4.90
2018-06-24T13:09:02.164Z,3.15
2018-06-24T13:11:43.062Z,3.10
2018-06-24T13:14:23.907Z,2.90
2018-06-24T13:17:05.030Z,3.10
2018-06-24T13:19:45.848Z,3.45
2018-06-24T13:22:14.168Z,3.42
2018-06-24T13:24:54.552Z,3.20
2018-06-24T13:27:35.247Z,2.85
2018-06-24T13:30:16.013Z,3.50
2018-06-24T13:32:56.688Z,4.10
2018-06-24T13:35:37.517Z,3.05
2018-06-24T13:38:18.459Z,2.90
2018-06-24T13:40:59.226Z,2.80
2018-06-24T13:43:27.920Z,3.20
2018-06-24T13:46:08.632Z,2.80
2018-06-24T13:48:49.469Z,3.62
2018-06-24T13:51:30.228Z,4.92
2018-06-24T13:54:11.692Z,3.50
2018-06-24T13:56:52.154Z,3.72
2018-06-24T13:59:33.192Z,3.80
2018-06-24T14:02:01.483Z,3.40
2018-06-24T14:04:34.556Z,3.30
2018-06-24T14:07:02.860Z,3.20
2018-06-24T14:09:43.646Z,3.90
2018-06-24T14:12:11.920Z,4.08
2018-06-24T14:14:40.216Z,4.10
2018-06-24T14:17:08.497Z,3.50
2018-06-24T14:19:43.614Z,4.00
2018-06-24T14:22:13.495Z,3.95
2018-06-24T14:24:53.956Z,4.12
2018-06-24T14:27:22.229Z,4.00
2018-06-24T14:30:02.477Z,4.30
2018-06-24T14:32:43.198Z,4.40
2018-06-24T14:35:11.555Z,4.20
2018-06-24T14:37:39.774Z,3.95
2018-06-24T14:40:08.426Z,4.05
2018-06-24T14:42:38.377Z,3.87
2018-06-24T14:45:18.833Z,3.65
2018-06-24T14:47:59.361Z,4.10
2018-06-24T14:50:33.638Z,3.67
2018-06-24T14:53:06.139Z,3.65
2018-06-24T14:55:46.708Z,3.20
2018-06-24T14:58:27.655Z,3.00
2018-06-24T15:01:00.716Z,3.80
2018-06-24T15:03:29.227Z,3.80
2018-06-24T15:06:09.883Z,3.47
2018-06-24T15:08:39.188Z,2.80
2018-06-24T15:11:08.137Z,3.08
2018-06-24T15:13:36.712Z,3.30
2018-06-24T15:16:12.436Z,3.20
2018-06-24T15:18:53.321Z,3.40
2018-06-24T15:21:33.979Z,3.20
2018-06-24T15:24:02.316Z,3.50
2018-06-24T15:26:42.682Z,3.60
2018-06-24T15:29:12.360Z,3.50
2018-06-24T15:31:41.695Z,3.37
2018-06-24T15:34:22.732Z,2.65
2018-06-24T15:37:03.467Z,2.70
2018-06-24T15:39:44.707Z,3.62
2018-06-24T15:42:25.459Z,3.58
2018-06-24T15:45:06.322Z,3.85
2018-06-24T15:47:34.559Z,4.10
2018-06-24T15:50:15.057Z,3.72
2018-06-24T15:52:43.362Z,3.75
2018-06-24T15:55:23.818Z,3.85
2018-06-24T15:57:52.216Z,3.20
2018-06-24T16:00:20.428Z,3.92
2018-06-24T16:02:48.687Z,3.80
2018-06-24T16:05:28.930Z,4.35
2018-06-24T16:07:57.207Z,4.78
2018-06-24T16:10:25.521Z,4.72
2018-06-24T16:13:05.817Z,5.30
2018-06-24T16:15:34.136Z,5.50
2018-06-24T16:18:14.300Z,5.90
2018-06-24T16:20:55.623Z,5.78
2018-06-24T16:23:23.719Z,6.40
2018-06-24T16:25:56.252Z,6.60
2018-06-24T16:28:36.840Z,6.03
2018-06-24T16:31:05.177Z,5.20
2018-06-24T16:33:45.692Z,5.20
2018-06-24T16:36:26.769Z,7.10
2018-06-24T16:38:55.139Z,5.05
2018-06-24T16:41:35.728Z,4.47
2018-06-24T16:44:04.072Z,3.83
2018-06-24T16:46:44.564Z,4.00
2018-06-24T16:49:17.169Z,4.73
2018-06-24T16:51:57.357Z,4.60
2018-06-24T16:54:25.777Z,5.20
2018-06-24T16:57:06.260Z,5.20
2018-06-24T16:59:47.022Z,6.30
2018-06-24T17:02:27.811Z,5.70
2018-06-24T17:05:08.846Z,34.75
2018-06-24T17:07:37.126Z,12.93
2018-06-24T17:10:05.445Z,8.78
2018-06-24T17:12:49.609Z,9.17
2018-06-24T17:15:18.078Z,9.40
2018-06-24T17:17:58.585Z,8.60
2018-06-24T17:20:39.170Z,8.93
2018-06-24T17:23:07.486Z,7.90
2018-06-24T17:25:47.949Z,9.10
2018-06-24T17:28:16.219Z,6.83
2018-06-24T17:30:57.136Z,8.28
2018-06-24T17:33:38.045Z,8.68
2018-06-24T17:36:18.660Z,10.15
2018-06-24T17:38:47.085Z,9.28
2018-06-24T17:41:15.397Z,6.00
2018-06-24T17:43:43.777Z,5.92
2018-06-24T17:46:24.404Z,6.00
2018-06-24T17:48:54.077Z,4.30
2018-06-24T17:51:22.546Z,4.15
2018-06-24T17:53:54.443Z,5.08
2018-06-24T17:56:22.694Z,4.33
2018-06-24T17:58:51.057Z,3.40
2018-06-24T18:01:32.051Z,4.37
2018-06-24T18:04:01.329Z,7.85
2018-06-24T18:06:29.813Z,6.08
2018-06-24T18:08:58.075Z,7.70
2018-06-24T18:11:39.214Z,5.80
2018-06-24T18:14:07.803Z,5.62
2018-06-24T18:16:48.686Z,6.83
2018-06-24T18:19:29.287Z,9.93
2018-06-24T18:22:09.985Z,7.40
2018-06-24T18:24:50.778Z,5.90
2018-06-24T18:27:31.546Z,5.87
2018-06-24T18:30:00.042Z,7.20
2018-06-24T18:32:28.618Z,5.47
2018-06-24T18:35:09.213Z,6.40
2018-06-24T18:37:49.952Z,10.40
2018-06-24T18:40:30.694Z,8.23
2018-06-24T18:43:11.436Z,9.68
2018-06-24T18:45:52.145Z,11.50
2018-06-24T18:48:20.436Z,10.00
2018-06-24T18:51:01.348Z,8.23
2018-06-24T18:53:41.662Z,7.67
2018-06-24T18:56:10.018Z,9.93
2018-06-24T18:58:50.467Z,9.40
2018-06-24T19:01:18.982Z,7.33
2018-06-24T19:03:59.603Z,9.90
2018-06-24T19:06:40.349Z,6.87
2018-06-24T19:09:21.253Z,5.83
2018-06-24T19:11:49.565Z,4.95
2018-06-24T19:14:17.872Z,5.80
2018-06-24T19:16:46.501Z,5.05
2018-06-24T19:19:18.484Z,5.00
2018-06-24T19:21:47.172Z,5.00
2018-06-24T19:24:27.709Z,4.40
2018-06-24T19:27:06.064Z,4.40
2018-06-24T19:29:35.990Z,4.55
2018-06-24T19:32:16.483Z,5.17
2018-06-24T19:34:57.330Z,6.80
2018-06-24T19:37:25.659Z,8.00
2018-06-24T19:39:53.968Z,9.20
2018-06-24T19:42:23.167Z,7.60
2018-06-24T19:45:03.681Z,7.22
2018-06-24T19:47:32.642Z,5.90
2018-06-24T19:50:00.918Z,5.00
2018-06-24T19:52:41.425Z,5.28
2018-06-24T19:55:22.094Z,6.30
2018-06-24T19:58:02.809Z,6.30
2018-06-24T20:00:43.478Z,6.40
2018-06-24T20:03:11.775Z,6.90
2018-06-24T20:05:40.035Z,6.25
2018-06-24T20:08:08.145Z,7.08
2018-06-24T20:10:37.374Z,7.62
2018-06-24T20:13:11.453Z,10.50
2018-06-24T20:15:51.891Z,11.60
2018-06-24T20:18:32.694Z,13.60
2018-06-24T20:21:00.920Z,8.80
2018-06-24T20:23:41.433Z,11.90
2018-06-24T20:26:22.254Z,10.63
2018-06-24T20:29:02.929Z,9.70
2018-06-24T20:31:44.637Z,9.23
2018-06-24T20:34:12.900Z,7.92
2018-06-24T20:36:44.258Z,9.70
2018-06-24T20:39:16.215Z,10.18
2018-06-24T20:41:49.984Z,9.97
2018-06-24T20:44:31.403Z,8.95
2018-06-24T20:46:59.855Z,8.70
2018-06-24T20:49:40.699Z,9.28
2018-06-24T20:52:21.420Z,9.10
2018-06-24T20:55:02.597Z,9.10
2018-06-24T20:57:43.147Z,9.53
2018-06-24T21:00:11.199Z,10.30
2018-06-24T21:02:39.583Z,10.00
2018-06-24T21:05:20.011Z,9.88
2018-06-24T21:08:00.749Z,9.63
2018-06-24T21:10:41.871Z,14.80
2018-06-24T21:13:10.208Z,14.25
2018-06-24T21:15:51.111Z,16.63
2018-06-24T21:18:32.046Z,15.63
2018-06-24T21:21:00.333Z,13.70
2018-06-24T21:23:34.602Z,13.70
2018-06-24T21:26:06.907Z,13.43
2018-06-24T21:28:35.298Z,13.08
2018-06-24T21:31:03.542Z,12.25
2018-06-24T21:33:44.125Z,12.85
2018-06-24T21:36:14.260Z,12.30
2018-06-24T21:38:42.595Z,13.83
2018-06-24T21:41:23.268Z,15.00
2018-06-24T21:44:04.118Z,15.03
2018-06-24T21:46:44.636Z,18.50
2018-06-24T21:49:13.034Z,14.63
2018-06-24T21:51:54.051Z,13.48
2018-06-24T21:54:35.163Z,13.62
2018-06-24T21:57:15.969Z,13.65
2018-06-24T21:59:45.553Z,9.80
2018-06-24T22:02:25.778Z,11.38
2018-06-24T22:05:06.464Z,10.70
2018-06-24T22:07:47.245Z,9.83
2018-06-24T22:10:15.548Z,11.50
2018-06-24T22:12:55.895Z,11.35
2018-06-24T22:15:24.339Z,17.32
2018-06-24T22:18:05.196Z,14.40
2018-06-24T22:20:46.179Z,15.40
2018-06-24T22:23:19.478Z,14.65
2018-06-24T22:25:48.513Z,14.30
2018-06-24T22:28:17.607Z,16.12
2018-06-24T22:30:57.816Z,12.58
2018-06-24T22:33:38.681Z,15.08
2018-06-24T22:36:19.542Z,13.85
2018-06-24T22:39:00.278Z,13.70
2018-06-24T22:41:40.728Z,13.00
2018-06-24T22:44:21.387Z,12.73
2018-06-24T22:46:49.684Z,11.20
2018-06-24T22:49:30.455Z,9.85
2018-06-24T22:52:11.296Z,10.53
2018-06-24T22:54:39.592Z,8.65
2018-06-24T22:57:19.901Z,8.60
2018-06-24T23:00:30.910Z,8.18
2018-06-24T23:03:11.784Z,8.08
2018-06-24T23:05:52.338Z,8.23
2018-06-24T23:08:33.053Z,8.88
2018-06-24T23:11:13.628Z,8.18
2018-06-24T23:13:41.832Z,7.35
2018-06-24T23:16:22.221Z,8.40
2018-06-24T23:19:02.980Z,7.60
2018-06-24T23:21:43.718Z,7.50
2018-06-24T23:24:24.784Z,7.67
2018-06-24T23:27:05.277Z,8.03
2018-06-24T23:29:46.160Z,7.67
2018-06-24T23:32:26.799Z,7.70
2018-06-24T23:35:07.670Z,7.90
2018-06-24T23:37:36.054Z,7.65
2018-06-24T23:40:16.309Z,8.80
2018-06-24T23:42:57.179Z,8.78
2018-06-24T23:45:38.164Z,8.43
2018-06-24T23:48:18.996Z,9.08
2018-06-24T23:50:59.918Z,10.25
2018-06-24T23:53:40.916Z,9.73
2018-06-24T23:56:09.259Z,9.00
2018-06-24T23:58:49.705Z,8.78
